createdAt,value
2022-08-28T00:01:15.806Z,6.30
2022-08-28T00:06:19.036Z,6.10
2022-08-28T00:11:23.791Z,5.32
2022-08-28T00:16:27.538Z,5.55
2022-08-28T00:21:33.183Z,4.45
2022-08-28T00:26:56.159Z,5.13
2022-08-28T00:31:59.662Z,5.13
2022-08-28T00:37:02.814Z,5.28
2022-08-28T00:42:07.588Z,4.88
2022-08-28T00:47:10.724Z,5.95
2022-08-28T00:52:16.070Z,5.82
2022-08-28T00:57:27.021Z,5.38
2022-08-28T01:02:31.923Z,5.70
2022-08-28T01:07:35.427Z,6.13
2022-08-28T01:12:40.430Z,7.22
2022-08-28T01:17:47.587Z,7.82
2022-08-28T01:22:59.369Z,7.97
2022-08-28T01:28:06.107Z,7.65
2022-08-28T01:33:09.270Z,7.47
2022-08-28T01:38:20.256Z,7.93
2022-08-28T01:43:28.153Z,8.55
2022-08-28T01:48:35.056Z,7.55
2022-08-28T01:53:39.105Z,9.13
2022-08-28T01:58:44.080Z,8.70
2022-08-28T02:03:47.869Z,7.82
2022-08-28T02:08:55.260Z,7.50
2022-08-28T02:14:00.948Z,8.77
2022-08-28T02:19:04.493Z,7.82
2022-08-28T02:24:07.818Z,8.02
2022-08-28T02:29:13.146Z,7.93
2022-08-28T02:34:16.372Z,6.97
2022-08-28T02:39:19.485Z,7.40
2022-08-28T02:44:23.840Z,6.65
2022-08-28T02:49:31.274Z,5.97
2022-08-28T02:54:39.807Z,6.38
2022-08-28T02:59:44.268Z,6.87
2022-08-28T03:04:48.400Z,6.93
2022-08-28T03:09:51.591Z,6.60
2022-08-28T03:14:56.923Z,6.32
2022-08-28T03:20:00.374Z,5.78
2022-08-28T03:25:03.907Z,5.55
2022-08-28T03:30:09.396Z,5.35
2022-08-28T03:35:13.436Z,5.35
2022-08-28T03:40:16.904Z,4.82
2022-08-28T03:45:22.277Z,4.55
2022-08-28T03:50:25.394Z,4.82
2022-08-28T03:55:31.588Z,5.57
2022-08-28T04:00:40.487Z,3.72
2022-08-28T04:05:45.377Z,4.60
2022-08-28T04:10:48.932Z,4.20
2022-08-28T04:16:02.635Z,4.43
2022-08-28T04:21:11.872Z,4.53
2022-08-28T04:31:32.302Z,5.90
2022-08-28T04:36:37.785Z,4.50
2022-08-28T04:46:45.409Z,3.25
2022-08-28T04:51:51.609Z,3.65
2022-08-28T04:56:54.919Z,3.15
2022-08-28T05:01:59.566Z,3.80
2022-08-28T05:07:02.793Z,3.43
2022-08-28T05:12:06.412Z,3.45
2022-08-28T05:17:13.103Z,3.22
2022-08-28T05:22:16.234Z,2.55
2022-08-28T05:27:19.432Z,3.40
2022-08-28T05:32:24.256Z,3.05
2022-08-28T05:37:27.777Z,4.03
2022-08-28T05:42:31.907Z,4.05
2022-08-28T05:47:38.526Z,3.92
2022-08-28T05:52:42.681Z,3.23
2022-08-28T05:57:45.784Z,4.07
2022-08-28T06:02:50.262Z,4.18
2022-08-28T06:07:53.718Z,5.05
2022-08-28T06:12:56.943Z,4.85
2022-08-28T06:18:01.686Z,4.28
2022-08-28T06:23:04.905Z,4.43
2022-08-28T06:28:07.996Z,4.40
2022-08-28T06:33:16.407Z,4.77
2022-08-28T06:38:21.092Z,4.80
2022-08-28T06:43:26.813Z,4.50
2022-08-28T06:48:31.753Z,4.18
2022-08-28T06:53:35.284Z,4.20
2022-08-28T06:58:41.134Z,4.40
2022-08-28T07:03:46.238Z,3.83
2022-08-28T07:13:53.364Z,4.55
2022-08-28T07:18:58.245Z,4.63
2022-08-28T07:24:03.396Z,4.82
2022-08-28T07:34:18.659Z,5.03
2022-08-28T07:39:21.811Z,5.45
2022-08-28T07:44:43.640Z,3.65
2022-08-28T07:49:48.522Z,4.57
2022-08-28T07:54:51.676Z,4.30
2022-08-28T07:59:54.808Z,4.90
2022-08-28T08:04:59.325Z,4.57
2022-08-28T08:10:02.506Z,4.20
2022-08-28T08:15:06.492Z,5.10
2022-08-28T08:20:11.705Z,4.68
2022-08-28T08:25:14.888Z,4.97
2022-08-28T08:30:18.133Z,4.03
2022-08-28T08:35:22.670Z,4.32
2022-08-28T08:40:25.859Z,5.10
2022-08-28T08:45:31.070Z,5.22
2022-08-28T08:55:45.126Z,4.30
2022-08-28T09:00:56.208Z,4.50
2022-08-28T09:06:03.433Z,4.30
2022-08-28T09:11:16.818Z,5.13
2022-08-28T09:16:27.142Z,5.53
2022-08-28T09:21:38.788Z,4.72
2022-08-28T09:26:41.897Z,4.45
2022-08-28T09:31:46.161Z,4.87
2022-08-28T09:36:51.418Z,5.00
2022-08-28T09:47:46.000Z,4.85
2022-08-28T09:52:53.993Z,5.07
2022-08-28T09:57:57.145Z,5.35
2022-08-28T10:03:07.804Z,5.30
2022-08-28T10:08:27.586Z,6.22
2022-08-28T10:13:35.518Z,6.18
2022-08-28T10:18:45.779Z,5.80
2022-08-28T10:24:11.404Z,6.03
2022-08-28T10:29:26.684Z,5.30
2022-08-28T10:34:39.590Z,7.45
2022-08-28T10:39:51.498Z,5.75
2022-08-28T10:44:59.840Z,6.18
2022-08-28T10:50:11.273Z,5.80
2022-08-28T10:55:21.579Z,5.50
2022-08-28T11:00:27.345Z,5.63
2022-08-28T11:05:37.055Z,5.53
2022-08-28T11:10:50.508Z,6.07
2022-08-28T11:15:53.847Z,5.82
2022-08-28T11:21:09.807Z,6.05
2022-08-28T11:26:22.965Z,6.38
2022-08-28T11:31:35.249Z,6.72
2022-08-28T11:37:00.944Z,6.53
2022-08-28T11:42:34.452Z,6.45
2022-08-28T11:47:56.637Z,6.25
2022-08-28T11:53:24.043Z,5.72
2022-08-28T11:58:36.447Z,5.20
2022-08-28T12:03:42.726Z,6.18
2022-08-28T12:09:10.522Z,6.07
2022-08-28T12:14:50.350Z,5.60
2022-08-28T12:19:58.735Z,5.18
2022-08-28T12:25:06.377Z,5.30
2022-08-28T12:30:12.196Z,5.00
2022-08-28T12:35:19.528Z,6.53
2022-08-28T12:40:25.552Z,5.25
2022-08-28T12:45:37.117Z,6.00
2022-08-28T12:50:40.893Z,5.57
2022-08-28T12:55:45.971Z,4.95
2022-08-28T13:00:56.904Z,4.10
2022-08-28T13:28:59.401Z,3.65
2022-08-28T13:34:11.254Z,3.10
2022-08-28T13:39:17.217Z,3.20
2022-08-28T13:44:33.214Z,2.67
2022-08-28T13:49:36.329Z,2.60
2022-08-28T13:54:43.524Z,3.00
2022-08-28T13:59:53.576Z,2.60
2022-08-28T14:04:58.606Z,2.70
2022-08-28T14:10:01.895Z,2.75
2022-08-28T14:15:08.402Z,2.50
2022-08-28T14:20:13.215Z,2.90
2022-08-28T14:25:47.619Z,2.20
2022-08-28T14:31:15.041Z,2.40
2022-08-28T14:36:21.163Z,2.88
2022-08-28T14:41:25.466Z,1.95
2022-08-28T14:46:33.071Z,2.40
2022-08-28T14:51:38.358Z,2.53
2022-08-28T14:56:41.605Z,2.72
2022-08-28T15:01:46.539Z,2.30
2022-08-28T15:06:50.860Z,2.20
2022-08-28T15:11:54.401Z,2.08
2022-08-28T15:16:59.315Z,2.27
2022-08-28T15:22:04.217Z,2.30
2022-08-28T15:27:07.462Z,2.22
2022-08-28T15:40:01.635Z,2.53
2022-08-28T15:45:05.878Z,2.47
2022-08-28T15:50:10.013Z,3.25
2022-08-28T15:55:16.175Z,1.60
2022-08-28T16:00:19.918Z,2.22
2022-08-28T16:05:24.519Z,3.05
2022-08-28T16:10:31.023Z,2.95
2022-08-28T16:15:34.874Z,2.05
2022-08-28T16:20:38.187Z,3.57
2022-08-28T16:25:42.651Z,2.50
2022-08-28T16:30:45.881Z,2.47
2022-08-28T16:35:55.159Z,2.03
2022-08-28T16:41:00.713Z,2.42
2022-08-28T16:46:03.883Z,2.58
2022-08-28T16:58:43.003Z,2.20
2022-08-28T17:03:46.417Z,2.70
2022-08-28T17:08:53.308Z,1.92
2022-08-28T17:14:00.633Z,2.60
2022-08-28T17:19:04.181Z,2.35
2022-08-28T17:24:07.606Z,2.40
2022-08-28T17:29:12.402Z,2.58
2022-08-28T17:34:15.533Z,2.58
2022-08-28T17:39:25.248Z,2.33
2022-08-28T17:44:29.876Z,1.83
2022-08-28T17:49:33.214Z,2.85
2022-08-28T17:54:36.246Z,2.15
2022-08-28T17:59:40.911Z,2.60
2022-08-28T18:04:44.309Z,2.28
2022-08-28T18:09:47.968Z,2.58
2022-08-28T18:14:54.065Z,2.88
2022-08-28T18:19:57.702Z,3.47
2022-08-28T18:25:04.161Z,12.95
2022-08-28T18:30:10.159Z,12.65
2022-08-28T18:35:13.377Z,12.45
2022-08-28T18:40:17.010Z,6.70
2022-08-28T18:45:21.575Z,4.30
2022-08-28T18:50:26.784Z,4.40
2022-08-28T18:55:32.074Z,3.97
2022-08-28T19:00:36.736Z,8.15
2022-08-28T19:05:40.082Z,15.60
2022-08-28T19:10:43.500Z,16.75
2022-08-28T19:15:50.672Z,34.72
2022-08-28T19:21:03.412Z,32.13
2022-08-28T19:26:06.744Z,26.17
2022-08-28T19:31:11.717Z,15.05
2022-08-28T19:36:15.389Z,9.32
2022-08-28T19:41:18.572Z,6.88
2022-08-28T19:46:23.442Z,5.18
2022-08-28T19:51:26.655Z,3.78
2022-08-28T19:56:31.582Z,3.30
2022-08-28T20:01:38.672Z,3.22
2022-08-28T20:06:41.804Z,2.67
2022-08-28T20:11:47.525Z,3.05
2022-08-28T20:16:52.117Z,2.70
2022-08-28T20:21:55.807Z,3.10
2022-08-28T20:26:59.118Z,3.25
2022-08-28T20:32:04.098Z,2.80
2022-08-28T20:37:07.188Z,2.80
2022-08-28T20:42:11.816Z,2.78
2022-08-28T20:47:16.254Z,2.90
2022-08-28T20:52:19.384Z,3.33
2022-08-28T20:57:22.997Z,2.72
2022-08-28T21:02:29.383Z,2.85
2022-08-28T21:07:34.783Z,3.40
2022-08-28T21:17:43.291Z,3.65
2022-08-28T21:22:46.388Z,3.83
2022-08-28T21:27:49.466Z,3.60
2022-08-28T21:32:54.226Z,3.35
2022-08-28T21:37:57.592Z,3.10
2022-08-28T21:43:00.797Z,3.38
2022-08-28T21:48:05.647Z,4.13
2022-08-28T21:53:08.764Z,3.65
2022-08-28T21:58:11.882Z,3.63
2022-08-28T22:03:17.122Z,3.55
2022-08-28T22:08:22.623Z,3.95
2022-08-28T22:13:25.671Z,3.65
2022-08-28T22:18:32.112Z,3.50
2022-08-28T22:23:37.668Z,3.15
2022-08-28T22:28:42.515Z,4.00
2022-08-28T22:33:47.043Z,4.20
2022-08-28T22:38:53.221Z,3.77
2022-08-28T22:43:56.674Z,4.10
2022-08-28T22:49:01.202Z,3.63
2022-08-28T22:54:04.830Z,3.63
2022-08-28T22:59:08.031Z,3.55
2022-08-28T23:04:12.604Z,3.70
2022-08-28T23:09:15.805Z,4.37
2022-08-28T23:14:19.293Z,3.53
2022-08-28T23:19:23.901Z,3.55
2022-08-28T23:24:27.115Z,5.25
2022-08-28T23:29:30.421Z,3.63
2022-08-28T23:34:34.926Z,3.65
2022-08-28T23:39:39.125Z,3.70
2022-08-28T23:44:42.339Z,3.85
2022-08-28T23:49:47.125Z,3.55
2022-08-28T23:54:50.430Z,4.40
2022-08-28T23:59:53.772Z,3.05
